sensor_id;sensor_type;location;lat;lon;timestamp;pressure;altitude;pressure_sealevel;temperature;humidity
66381;BME280;53177;52.648;1.214;2022-09-03T00:01:48;100387.91;;;18.46;86.41
66381;BME280;53177;52.648;1.214;2022-09-03T00:04:23;100388.47;;;18.57;83.79
66381;BME280;53177;52.648;1.214;2022-09-03T00:07:01;100388.47;;;18.57;84.08
66381;BME280;53177;52.648;1.214;2022-09-03T00:09:42;100384.41;;;18.68;81.69
66381;BME280;53177;52.648;1.214;2022-09-03T00:12:15;100381.78;;;18.77;81.35
66381;BME280;53177;52.648;1.214;2022-09-03T00:15:08;100383.91;;;18.88;78.16
66381;BME280;53177;52.648;1.214;2022-09-03T00:17:38;100379.59;;;18.87;78.27
66381;BME280;53177;52.648;1.214;2022-09-03T00:20:10;100374.25;;;19.05;78.47
66381;BME280;53177;52.648;1.214;2022-09-03T00:22:43;100371.50;;;19.05;77.58
66381;BME280;53177;52.648;1.214;2022-09-03T00:25:14;100371.56;;;19.13;78.35
66381;BME280;53177;52.648;1.214;2022-09-03T00:27:42;100374.28;;;19.13;77.25
66381;BME280;53177;52.648;1.214;2022-09-03T00:30:15;100371.75;;;19.17;75.82
66381;BME280;53177;52.648;1.214;2022-09-03T00:32:46;100368.56;;;19.24;75.16
66381;BME280;53177;52.648;1.214;2022-09-03T00:35:34;100366.50;;;19.29;75.14
66381;BME280;53177;52.648;1.214;2022-09-03T00:38:02;100359.09;;;19.21;75.74
66381;BME280;53177;52.648;1.214;2022-09-03T00:46:39;100358.44;;;19.15;77.51
66381;BME280;53177;52.648;1.214;2022-09-03T00:51:48;100354.78;;;19.20;76.53
66381;BME280;53177;52.648;1.214;2022-09-03T00:54:19;100358.75;;;19.14;76.33
66381;BME280;53177;52.648;1.214;2022-09-03T00:59:51;100355.41;;;19.17;77.28
66381;BME280;53177;52.648;1.214;2022-09-03T01:10:58;100343.31;;;19.01;79.47
66381;BME280;53177;52.648;1.214;2022-09-03T01:30:25;100328.38;;;18.89;82.86
66381;BME280;53177;52.648;1.214;2022-09-03T01:40:51;100329.56;;;19.06;82.90
66381;BME280;53177;52.648;1.214;2022-09-03T01:43:35;100327.34;;;19.08;80.52
66381;BME280;53177;52.648;1.214;2022-09-03T01:46:24;100322.06;;;19.11;79.79
66381;BME280;53177;52.648;1.214;2022-09-03T01:49:02;100327.97;;;19.05;83.70
66381;BME280;53177;52.648;1.214;2022-09-03T01:51:31;100324.53;;;18.90;85.54
66381;BME280;53177;52.648;1.214;2022-09-03T01:59:21;100333.41;;;19.05;81.42
66381;BME280;53177;52.648;1.214;2022-09-03T02:02:17;100333.59;;;19.08;79.67
66381;BME280;53177;52.648;1.214;2022-09-03T02:04:57;100330.41;;;19.15;82.37
66381;BME280;53177;52.648;1.214;2022-09-03T02:07:25;100318.66;;;19.06;83.03
66381;BME280;53177;52.648;1.214;2022-09-03T02:09:51;100325.84;;;19.02;84.55
66381;BME280;53177;52.648;1.214;2022-09-03T02:12:17;100317.69;;;19.02;84.42
66381;BME280;53177;52.648;1.214;2022-09-03T02:14:44;100319.16;;;19.08;83.83
66381;BME280;53177;52.648;1.214;2022-09-03T02:17:10;100318.81;;;19.01;86.14
66381;BME280;53177;52.648;1.214;2022-09-03T02:19:37;100324.75;;;19.03;84.76
66381;BME280;53177;52.648;1.214;2022-09-03T02:22:04;100321.06;;;18.99;83.49
66381;BME280;53177;52.648;1.214;2022-09-03T02:24:29;100316.75;;;18.98;83.95
66381;BME280;53177;52.648;1.214;2022-09-03T02:26:55;100317.50;;;18.89;87.23
66381;BME280;53177;52.648;1.214;2022-09-03T02:29:21;100326.13;;;18.91;87.76
66381;BME280;53177;52.648;1.214;2022-09-03T02:31:47;100319.56;;;18.92;86.81
66381;BME280;53177;52.648;1.214;2022-09-03T02:34:13;100325.47;;;18.86;88.44
66381;BME280;53177;52.648;1.214;2022-09-03T02:36:45;100318.09;;;18.86;88.08
66381;BME280;53177;52.648;1.214;2022-09-03T02:39:12;100322.09;;;18.80;89.59
66381;BME280;53177;52.648;1.214;2022-09-03T02:41:38;100313.13;;;18.80;88.62
66381;BME280;53177;52.648;1.214;2022-09-03T02:47:00;100329.41;;;18.71;89.63
66381;BME280;53177;52.648;1.214;2022-09-03T02:49:27;100321.25;;;18.71;89.08
66381;BME280;53177;52.648;1.214;2022-09-03T02:52:00;100311.81;;;18.77;88.54
66381;BME280;53177;52.648;1.214;2022-09-03T02:54:26;100319.03;;;18.82;86.22
66381;BME280;53177;52.648;1.214;2022-09-03T02:56:53;100322.75;;;18.86;87.29
66381;BME280;53177;52.648;1.214;2022-09-03T02:59:18;100324.00;;;18.80;86.91
66381;BME280;53177;52.648;1.214;2022-09-03T03:01:45;100320.31;;;18.76;85.22
66381;BME280;53177;52.648;1.214;2022-09-03T03:04:11;100322.25;;;18.84;87.11
66381;BME280;53177;52.648;1.214;2022-09-03T03:06:36;100328.00;;;18.82;85.50
66381;BME280;53177;52.648;1.214;2022-09-03T03:09:01;100322.91;;;18.81;85.37
66381;BME280;53177;52.648;1.214;2022-09-03T03:11:30;100319.66;;;18.79;85.34
66381;BME280;53177;52.648;1.214;2022-09-03T03:13:56;100332.00;;;18.76;84.23
66381;BME280;53177;52.648;1.214;2022-09-03T03:16:21;100322.72;;;18.77;85.55
66381;BME280;53177;52.648;1.214;2022-09-03T03:18:47;100322.91;;;18.81;86.44
66381;BME280;53177;52.648;1.214;2022-09-03T03:21:14;100327.03;;;18.78;83.73
66381;BME280;53177;52.648;1.214;2022-09-03T03:23:40;100324.31;;;18.78;84.17
66381;BME280;53177;52.648;1.214;2022-09-03T03:26:09;100319.91;;;18.68;88.09
66381;BME280;53177;52.648;1.214;2022-09-03T03:28:35;100320.13;;;18.72;86.15
66381;BME280;53177;52.648;1.214;2022-09-03T03:31:11;100323.81;;;18.76;86.48
66381;BME280;53177;52.648;1.214;2022-09-03T03:33:38;100316.28;;;18.73;87.75
66381;BME280;53177;52.648;1.214;2022-09-03T03:38:35;100316.94;;;18.79;86.26
66381;BME280;53177;52.648;1.214;2022-09-03T03:41:28;100314.41;;;18.82;84.02
66381;BME280;53177;52.648;1.214;2022-09-03T03:43:56;100317.00;;;18.87;85.13
66381;BME280;53177;52.648;1.214;2022-09-03T03:46:23;100314.41;;;18.82;84.72
66381;BME280;53177;52.648;1.214;2022-09-03T03:48:50;100317.44;;;18.81;86.28
66381;BME280;53177;52.648;1.214;2022-09-03T03:51:16;100310.22;;;18.76;84.05
66381;BME280;53177;52.648;1.214;2022-09-03T03:53:43;100309.09;;;18.77;82.42
66381;BME280;53177;52.648;1.214;2022-09-03T03:56:12;100312.63;;;18.78;83.13
66381;BME280;53177;52.648;1.214;2022-09-03T03:58:39;100306.84;;;18.79;84.24
66381;BME280;53177;52.648;1.214;2022-09-03T04:01:23;100306.81;;;18.71;84.49
66381;BME280;53177;52.648;1.214;2022-09-03T04:03:49;100311.81;;;18.77;85.34
66381;BME280;53177;52.648;1.214;2022-09-03T04:06:17;100303.19;;;18.75;84.25
66381;BME280;53177;52.648;1.214;2022-09-03T04:08:44;100299.53;;;18.80;84.49
66381;BME280;53177;52.648;1.214;2022-09-03T04:11:12;100306.38;;;18.77;83.86
66381;BME280;53177;52.648;1.214;2022-09-03T04:13:40;100296.13;;;18.74;84.21
66381;BME280;53177;52.648;1.214;2022-09-03T04:16:26;100295.31;;;18.74;83.10
66381;BME280;53177;52.648;1.214;2022-09-03T04:18:53;100295.94;;;18.71;80.75
66381;BME280;53177;52.648;1.214;2022-09-03T04:21:24;100299.34;;;18.76;84.21
66381;BME280;53177;52.648;1.214;2022-09-03T04:23:50;100296.25;;;18.69;86.40
66381;BME280;53177;52.648;1.214;2022-09-03T04:26:19;100289.41;;;18.72;86.51
66381;BME280;53177;52.648;1.214;2022-09-03T04:28:45;100285.88;;;18.71;82.31
66381;BME280;53177;52.648;1.214;2022-09-03T04:31:12;100281.81;;;18.68;83.61
66381;BME280;53177;52.648;1.214;2022-09-03T04:33:38;100287.06;;;18.65;82.10
66381;BME280;53177;52.648;1.214;2022-09-03T04:36:12;100280.66;;;18.61;82.49
66381;BME280;53177;52.648;1.214;2022-09-03T04:38:42;100280.66;;;18.61;84.41
66381;BME280;53177;52.648;1.214;2022-09-03T04:41:12;100280.78;;;18.56;87.72
66381;BME280;53177;52.648;1.214;2022-09-03T04:43:40;100273.41;;;18.56;86.43
66381;BME280;53177;52.648;1.214;2022-09-03T04:46:10;100274.50;;;18.47;89.05
66381;BME280;53177;52.648;1.214;2022-09-03T04:48:36;100276.16;;;18.34;90.44
66381;BME280;53177;52.648;1.214;2022-09-03T04:51:04;100265.63;;;18.32;89.62
66381;BME280;53177;52.648;1.214;2022-09-03T04:53:35;100263.97;;;18.23;91.57
66381;BME280;53177;52.648;1.214;2022-09-03T04:56:01;100261.66;;;18.16;92.60
66381;BME280;53177;52.648;1.214;2022-09-03T04:58:27;100263.91;;;18.14;92.19
66381;BME280;53177;52.648;1.214;2022-09-03T05:00:53;100263.91;;;18.14;92.11
66381;BME280;53177;52.648;1.214;2022-09-03T05:03:19;100262.47;;;18.16;91.73
66381;BME280;53177;52.648;1.214;2022-09-03T05:05:54;100263.97;;;18.23;90.87
66381;BME280;53177;52.648;1.214;2022-09-03T05:08:20;100269.81;;;18.16;91.31
66381;BME280;53177;52.648;1.214;2022-09-03T05:10:46;100273.09;;;18.04;92.82
66381;BME280;53177;52.648;1.214;2022-09-03T05:13:11;100272.03;;;17.91;94.21
66381;BME280;53177;52.648;1.214;2022-09-03T05:15:36;100275.16;;;17.85;94.86
66381;BME280;53177;52.648;1.214;2022-09-03T05:18:02;100274.00;;;17.77;95.64
66381;BME280;53177;52.648;1.214;2022-09-03T05:20:29;100270.66;;;17.80;95.08
66381;BME280;53177;52.648;1.214;2022-09-03T05:22:56;100273.88;;;17.82;94.56
66381;BME280;53177;52.648;1.214;2022-09-03T05:25:22;100266.22;;;17.84;94.18
66381;BME280;53177;52.648;1.214;2022-09-03T05:27:48;100275.13;;;17.99;91.32
66381;BME280;53177;52.648;1.214;2022-09-03T05:30:15;100273.16;;;17.90;93.48
66381;BME280;53177;52.648;1.214;2022-09-03T05:32:43;100269.06;;;17.79;94.75
66381;BME280;53177;52.648;1.214;2022-09-03T05:35:08;100268.16;;;17.70;95.39
66381;BME280;53177;52.648;1.214;2022-09-03T05:37:35;100275.81;;;17.68;95.55
66381;BME280;53177;52.648;1.214;2022-09-03T05:40:01;100272.59;;;17.66;95.60
66381;BME280;53177;52.648;1.214;2022-09-03T05:42:27;100277.19;;;17.79;93.12
66381;BME280;53177;52.648;1.214;2022-09-03T05:44:52;100269.66;;;17.76;93.85
66381;BME280;53177;52.648;1.214;2022-09-03T05:47:19;100270.38;;;17.82;93.67
66381;BME280;53177;52.648;1.214;2022-09-03T05:49:44;100277.19;;;17.79;90.08
66381;BME280;53177;52.648;1.214;2022-09-03T05:52:09;100275.88;;;17.90;90.46
66381;BME280;53177;52.648;1.214;2022-09-03T05:54:35;100288.81;;;17.93;91.57
66381;BME280;53177;52.648;1.214;2022-09-03T05:57:00;100277.34;;;17.97;90.65
66381;BME280;53177;52.648;1.214;2022-09-03T05:59:25;100280.75;;;18.02;91.65
66381;BME280;53177;52.648;1.214;2022-09-03T06:01:51;100285.91;;;18.04;90.86
66381;BME280;53177;52.648;1.214;2022-09-03T06:04:16;100288.28;;;18.05;92.05
66381;BME280;53177;52.648;1.214;2022-09-03T06:06:43;100288.78;;;18.07;92.04
66381;BME280;53177;52.648;1.214;2022-09-03T06:09:11;100288.59;;;18.04;90.88
66381;BME280;53177;52.648;1.214;2022-09-03T06:11:38;100296.00;;;18.12;90.71
66381;BME280;53177;52.648;1.214;2022-09-03T06:14:06;100294.41;;;18.11;93.41
66381;BME280;53177;52.648;1.214;2022-09-03T06:16:36;100296.00;;;18.12;92.12
66381;BME280;53177;52.648;1.214;2022-09-03T06:19:02;100292.19;;;18.13;89.28
66381;BME280;53177;52.648;1.214;2022-09-03T06:21:31;100294.28;;;18.16;88.67
66381;BME280;53177;52.648;1.214;2022-09-03T06:23:57;100296.38;;;18.19;87.55
66381;BME280;53177;52.648;1.214;2022-09-03T06:26:24;100294.78;;;18.18;86.84
66381;BME280;53177;52.648;1.214;2022-09-03T06:28:49;100289.09;;;18.28;92.11
66381;BME280;53177;52.648;1.214;2022-09-03T06:31:16;100295.13;;;18.25;88.80
66381;BME280;53177;52.648;1.214;2022-09-03T06:33:42;100301.28;;;18.31;89.12
66381;BME280;53177;52.648;1.214;2022-09-03T06:36:16;100301.63;;;18.38;88.60
66381;BME280;53177;52.648;1.214;2022-09-03T06:38:43;100298.13;;;18.37;87.07
66381;BME280;53177;52.648;1.214;2022-09-03T06:41:11;100305.72;;;18.49;88.54
66381;BME280;53177;52.648;1.214;2022-09-03T06:43:39;100307.19;;;18.55;88.55
66381;BME280;53177;52.648;1.214;2022-09-03T06:46:12;100305.13;;;18.61;88.35
66381;BME280;53177;52.648;1.214;2022-09-03T06:48:39;100316.53;;;18.63;90.75
66381;BME280;53177;52.648;1.214;2022-09-03T06:51:07;100307.84;;;18.61;90.39
66381;BME280;53177;52.648;1.214;2022-09-03T06:53:38;100308.16;;;18.59;89.24
66381;BME280;53177;52.648;1.214;2022-09-03T06:56:06;100311.56;;;18.65;90.11
66381;BME280;53177;52.648;1.214;2022-09-03T06:58:41;100319.44;;;18.66;92.59
66381;BME280;53177;52.648;1.214;2022-09-03T07:01:18;100313.16;;;18.66;91.51
66381;BME280;53177;52.648;1.214;2022-09-03T07:03:46;100317.50;;;18.67;90.65
66381;BME280;53177;52.648;1.214;2022-09-03T07:06:16;100321.09;;;18.76;91.70
66381;BME280;53177;52.648;1.214;2022-09-03T07:08:43;100322.09;;;18.80;94.64
66381;BME280;53177;52.648;1.214;2022-09-03T07:11:13;100318.25;;;18.81;92.45
66381;BME280;53177;52.648;1.214;2022-09-03T07:13:41;100321.16;;;18.85;96.31
66381;BME280;53177;52.648;1.214;2022-09-03T07:16:10;100333.19;;;18.92;96.33
66381;BME280;53177;52.648;1.214;2022-09-03T07:18:37;100330.97;;;18.94;95.25
66381;BME280;53177;52.648;1.214;2022-09-03T07:21:08;100336.88;;;18.97;94.36
66381;BME280;53177;52.648;1.214;2022-09-03T07:23:35;100338.50;;;18.98;97.76
66381;BME280;53177;52.648;1.214;2022-09-03T07:26:24;100343.13;;;18.97;96.91
66381;BME280;53177;52.648;1.214;2022-09-03T07:28:50;100345.28;;;19.09;97.26
66381;BME280;53177;52.648;1.214;2022-09-03T07:31:21;100346.88;;;19.10;96.62
66381;BME280;53177;52.648;1.214;2022-09-03T07:33:53;100338.91;;;19.22;95.28
66381;BME280;53177;52.648;1.214;2022-09-03T07:36:20;100337.22;;;19.35;95.55
66381;BME280;53177;52.648;1.214;2022-09-03T07:38:46;100339.00;;;19.39;93.84
66381;BME280;53177;52.648;1.214;2022-09-03T07:41:13;100339.34;;;19.47;92.09
66381;BME280;53177;52.648;1.214;2022-09-03T07:43:44;100345.09;;;19.54;92.41
66381;BME280;53177;52.648;1.214;2022-09-03T07:46:14;100346.88;;;19.58;92.40
66381;BME280;53177;52.648;1.214;2022-09-03T07:48:45;100350.47;;;19.67;92.55
66381;BME280;53177;52.648;1.214;2022-09-03T07:51:11;100350.81;;;19.75;90.91
66381;BME280;53177;52.648;1.214;2022-09-03T07:53:36;100349.84;;;19.79;89.90
66381;BME280;53177;52.648;1.214;2022-09-03T07:56:07;100360.59;;;19.76;91.15
66381;BME280;53177;52.648;1.214;2022-09-03T07:58:34;100354.69;;;19.82;89.96
66381;BME280;53177;52.648;1.214;2022-09-03T08:01:04;100351.00;;;19.87;89.41
66381;BME280;53177;52.648;1.214;2022-09-03T08:03:32;100356.44;;;19.95;89.73
66381;BME280;53177;52.648;1.214;2022-09-03T08:06:01;100358.06;;;19.97;89.27
66381;BME280;53177;52.648;1.214;2022-09-03T08:08:27;100361.09;;;19.95;89.23
66381;BME280;53177;52.648;1.214;2022-09-03T08:10:52;100367.19;;;20.01;88.18
66381;BME280;53177;52.648;1.214;2022-09-03T08:13:18;100366.69;;;19.99;90.04
66381;BME280;53177;52.648;1.214;2022-09-03T08:15:52;100363.00;;;19.94;89.39
66381;BME280;53177;52.648;1.214;2022-09-03T08:18:18;100370.06;;;19.95;88.76
66381;BME280;53177;52.648;1.214;2022-09-03T08:20:43;100365.09;;;19.98;87.37
66381;BME280;53177;52.648;1.214;2022-09-03T08:23:09;100368.16;;;20.05;87.77
66381;BME280;53177;52.648;1.214;2022-09-03T08:25:34;100370.56;;;20.15;87.48
66381;BME280;53177;52.648;1.214;2022-09-03T08:28:00;100370.88;;;20.22;86.48
66381;BME280;53177;52.648;1.214;2022-09-03T08:30:27;100372.19;;;20.33;86.94
66381;BME280;53177;52.648;1.214;2022-09-03T08:32:53;100371.41;;;20.50;86.48
66381;BME280;53177;52.648;1.214;2022-09-03T08:35:19;100382.44;;;20.71;84.28
66381;BME280;53177;52.648;1.214;2022-09-03T08:37:45;100378.41;;;20.86;83.11
66381;BME280;53177;52.648;1.214;2022-09-03T08:40:14;100371.44;;;21.06;81.68
66381;BME280;53177;52.648;1.214;2022-09-03T08:42:41;100373.34;;;21.14;81.09
66381;BME280;53177;52.648;1.214;2022-09-03T08:45:18;100380.03;;;21.25;80.30
66381;BME280;53177;52.648;1.214;2022-09-03T08:50:31;100371.91;;;21.84;75.73
66381;BME280;53177;52.648;1.214;2022-09-03T08:53:02;100364.75;;;21.92;74.69
66381;BME280;53177;52.648;1.214;2022-09-03T08:55:52;100361.84;;;21.97;72.24
66381;BME280;53177;52.648;1.214;2022-09-03T08:58:25;100355.44;;;22.14;72.24
66381;BME280;53177;52.648;1.214;2022-09-03T09:09:41;100371.31;;;22.95;69.11
66381;BME280;53177;52.648;1.214;2022-09-03T09:22:48;100377.75;;;23.49;65.14
66381;BME280;53177;52.648;1.214;2022-09-03T09:25:20;100378.19;;;23.51;64.65
66381;BME280;53177;52.648;1.214;2022-09-03T09:27:53;100377.16;;;23.43;64.35
66381;BME280;53177;52.648;1.214;2022-09-03T09:30:25;100381.59;;;23.96;62.99
66381;BME280;53177;52.648;1.214;2022-09-03T09:32:51;100378.81;;;24.09;60.93
66381;BME280;53177;52.648;1.214;2022-09-03T09:35:17;100386.88;;;23.77;61.76
66381;BME280;53177;52.648;1.214;2022-09-03T09:40:25;100384.59;;;23.55;63.76
66381;BME280;53177;52.648;1.214;2022-09-03T09:43:03;100379.56;;;23.44;63.12
66381;BME280;53177;52.648;1.214;2022-09-03T09:45:28;100379.56;;;23.57;61.53
66381;BME280;53177;52.648;1.214;2022-09-03T09:47:55;100384.34;;;23.60;60.63
66381;BME280;53177;52.648;1.214;2022-09-03T09:50:22;100372.94;;;23.82;62.04
66381;BME280;53177;52.648;1.214;2022-09-03T09:52:47;100370.59;;;24.09;58.35
66381;BME280;53177;52.648;1.214;2022-09-03T09:55:15;100377.13;;;24.04;59.46
66381;BME280;53177;52.648;1.214;2022-09-03T09:57:42;100381.53;;;23.68;58.98
66381;BME280;53177;52.648;1.214;2022-09-03T10:00:16;100387.91;;;23.85;61.17
66381;BME280;53177;52.648;1.214;2022-09-03T10:02:51;100386.13;;;24.17;58.63
66381;BME280;53177;52.648;1.214;2022-09-03T10:05:23;100382.34;;;24.78;58.13
66381;BME280;53177;52.648;1.214;2022-09-03T10:07:59;100389.94;;;24.96;54.24
66381;BME280;53177;52.648;1.214;2022-09-03T10:10:26;100388.75;;;25.10;51.72
66381;BME280;53177;52.648;1.214;2022-09-03T10:13:00;100386.16;;;25.17;55.14
66381;BME280;53177;52.648;1.214;2022-09-03T10:15:36;100384.38;;;25.25;53.01
66381;BME280;53177;52.648;1.214;2022-09-03T10:21:05;100381.19;;;25.38;51.64
66381;BME280;53177;52.648;1.214;2022-09-03T10:23:52;100379.84;;;25.48;50.38
66381;BME280;53177;52.648;1.214;2022-09-03T10:26:22;100379.50;;;25.50;50.14
66381;BME280;53177;52.648;1.214;2022-09-03T10:28:56;100390.22;;;25.55;51.08
66381;BME280;53177;52.648;1.214;2022-09-03T10:34:22;100386.03;;;26.12;50.09
66381;BME280;53177;52.648;1.214;2022-09-03T10:37:33;100384.28;;;26.42;51.21
66381;BME280;53177;52.648;1.214;2022-09-03T10:45:40;100386.91;;;26.74;49.25
66381;BME280;53177;52.648;1.214;2022-09-03T11:06:42;100386.88;;;26.93;50.51
66381;BME280;53177;52.648;1.214;2022-09-03T11:09:20;100384.88;;;27.13;47.09
66381;BME280;53177;52.648;1.214;2022-09-03T11:11:54;100377.78;;;26.70;50.67
66381;BME280;53177;52.648;1.214;2022-09-03T11:14:43;100380.78;;;25.87;48.64
66381;BME280;53177;52.648;1.214;2022-09-03T11:17:27;100389.84;;;25.72;49.11
66381;BME280;53177;52.648;1.214;2022-09-03T11:22:35;100379.38;;;26.71;49.24
66381;BME280;53177;52.648;1.214;2022-09-03T11:25:04;100382.84;;;26.10;47.26
66381;BME280;53177;52.648;1.214;2022-09-03T11:30:11;100378.28;;;25.15;53.30
66381;BME280;53177;52.648;1.214;2022-09-03T11:32:57;100366.31;;;25.90;49.37
66381;BME280;53177;52.648;1.214;2022-09-03T11:35:28;100370.25;;;26.48;47.38
66381;BME280;53177;52.648;1.214;2022-09-03T11:38:03;100371.75;;;27.07;49.21
66381;BME280;53177;52.648;1.214;2022-09-03T11:40:38;100369.00;;;27.07;45.29
66381;BME280;53177;52.648;1.214;2022-09-03T11:43:24;100368.19;;;27.06;49.08
66381;BME280;53177;52.648;1.214;2022-09-03T11:48:55;100364.47;;;27.18;48.20
66381;BME280;53177;52.648;1.214;2022-09-03T11:51:33;100383.34;;;27.39;45.45
66381;BME280;53177;52.648;1.214;2022-09-03T11:54:05;100369.22;;;27.70;49.56
66381;BME280;53177;52.648;1.214;2022-09-03T11:56:32;100361.84;;;28.05;46.80
66381;BME280;53177;52.648;1.214;2022-09-03T12:01:57;100359.38;;;27.96;44.63
66381;BME280;53177;52.648;1.214;2022-09-03T12:04:30;100358.53;;;27.16;47.80
66381;BME280;53177;52.648;1.214;2022-09-03T12:09:48;100371.38;;;27.08;47.04
66381;BME280;53177;52.648;1.214;2022-09-03T12:17:56;100368.34;;;27.13;45.89
66381;BME280;53177;52.648;1.214;2022-09-03T12:20:42;100364.28;;;26.84;44.92
66381;BME280;53177;52.648;1.214;2022-09-03T12:23:31;100364.94;;;27.46;44.79
66381;BME280;53177;52.648;1.214;2022-09-03T12:26:04;100367.28;;;27.98;43.21
66381;BME280;53177;52.648;1.214;2022-09-03T12:28:34;100374.91;;;27.81;45.02
66381;BME280;53177;52.648;1.214;2022-09-03T12:34:09;100364.09;;;27.42;49.03
66381;BME280;53177;52.648;1.214;2022-09-03T12:36:41;100372.13;;;27.55;45.89
66381;BME280;53177;52.648;1.214;2022-09-03T12:39:12;100374.28;;;27.15;44.02
66381;BME280;53177;52.648;1.214;2022-09-03T12:47:04;100375.66;;;26.83;43.80
66381;BME280;53177;52.648;1.214;2022-09-03T12:49:38;100372.06;;;27.02;46.96
66381;BME280;53177;52.648;1.214;2022-09-03T12:52:17;100375.47;;;27.64;44.27
66381;BME280;53177;52.648;1.214;2022-09-03T12:54:53;100381.09;;;27.21;45.97
66381;BME280;53177;52.648;1.214;2022-09-03T12:57:28;100384.81;;;27.10;44.27
66381;BME280;53177;52.648;1.214;2022-09-03T12:59:57;100379.94;;;26.80;45.45
66381;BME280;53177;52.648;1.214;2022-09-03T13:03:02;100375.19;;;27.46;44.07
66381;BME280;53177;52.648;1.214;2022-09-03T13:05:25;100384.38;;;27.80;46.49
66381;BME280;53177;52.648;1.214;2022-09-03T13:07:57;100389.22;;;27.87;44.55
66381;BME280;53177;52.648;1.214;2022-09-03T13:10:35;100389.13;;;27.57;46.71
66381;BME280;53177;52.648;1.214;2022-09-03T13:13:20;100385.09;;;27.51;48.21
66381;BME280;53177;52.648;1.214;2022-09-03T13:16:05;100379.25;;;27.29;46.40
66381;BME280;53177;52.648;1.214;2022-09-03T13:18:53;100382.88;;;27.10;45.94
66381;BME280;53177;52.648;1.214;2022-09-03T13:21:37;100381.94;;;26.83;49.17
66381;BME280;53177;52.648;1.214;2022-09-03T13:40:55;100377.34;;;26.10;51.72
66381;BME280;53177;52.648;1.214;2022-09-03T13:46:11;100385.31;;;26.15;49.90
66381;BME280;53177;52.648;1.214;2022-09-03T13:48:43;100384.22;;;26.00;48.51
66381;BME280;53177;52.648;1.214;2022-09-03T13:51:30;100383.72;;;26.14;49.60
66381;BME280;53177;52.648;1.214;2022-09-03T13:54:14;100385.31;;;26.15;49.39
66381;BME280;53177;52.648;1.214;2022-09-03T13:57:17;100378.31;;;25.82;49.49
66381;BME280;53177;52.648;1.214;2022-09-03T14:00:12;100381.44;;;25.81;49.64
66381;BME280;53177;52.648;1.214;2022-09-03T14:08:39;100388.41;;;25.62;50.00
66381;BME280;53177;52.648;1.214;2022-09-03T14:19:50;100378.91;;;25.76;50.16
66381;BME280;53177;52.648;1.214;2022-09-03T14:22:23;100380.34;;;25.69;49.94
66381;BME280;53177;52.648;1.214;2022-09-03T14:25:02;100389.91;;;25.76;49.37
66381;BME280;53177;52.648;1.214;2022-09-03T14:27:31;100379.34;;;25.93;49.12
66381;BME280;53177;52.648;1.214;2022-09-03T14:30:03;100380.69;;;25.84;48.73
66381;BME280;53177;52.648;1.214;2022-09-03T14:32:45;100379.19;;;25.86;48.25
66381;BME280;53177;52.648;1.214;2022-09-03T14:35:46;100382.59;;;25.64;48.39
66381;BME280;53177;52.648;1.214;2022-09-03T14:38:20;100379.81;;;25.80;48.90
66381;BME280;53177;52.648;1.214;2022-09-03T14:41:00;100384.13;;;26.16;47.40
66381;BME280;53177;52.648;1.214;2022-09-03T14:43:38;100379.97;;;26.22;48.40
66381;BME280;53177;52.648;1.214;2022-09-03T14:52:10;100378.94;;;26.11;47.58
66381;BME280;53177;52.648;1.214;2022-09-03T14:57:25;100373.22;;;26.19;49.74
66381;BME280;53177;52.648;1.214;2022-09-03T15:00:08;100375.16;;;26.38;48.18
66381;BME280;53177;52.648;1.214;2022-09-03T15:11:14;100375.75;;;26.09;48.78
66381;BME280;53177;52.648;1.214;2022-09-03T15:16:52;100380.88;;;26.30;48.21
66381;BME280;53177;52.648;1.214;2022-09-03T15:24:47;100380.44;;;26.43;46.93
66381;BME280;53177;52.648;1.214;2022-09-03T15:30:15;100397.75;;;26.44;47.41
66381;BME280;53177;52.648;1.214;2022-09-03T15:35:44;100389.13;;;26.30;47.09
66381;BME280;53177;52.648;1.214;2022-09-03T15:41:09;100396.22;;;26.11;47.68
66381;BME280;53177;52.648;1.214;2022-09-03T15:43:42;100398.88;;;25.88;48.33
66381;BME280;53177;52.648;1.214;2022-09-03T15:46:32;100399.06;;;25.80;48.88
66381;BME280;53177;52.648;1.214;2022-09-03T15:49:02;100404.75;;;25.71;48.57
66381;BME280;53177;52.648;1.214;2022-09-03T15:51:33;100396.25;;;25.76;49.66
66381;BME280;53177;52.648;1.214;2022-09-03T15:54:13;100405.81;;;25.82;49.33
66381;BME280;53177;52.648;1.214;2022-09-03T15:56:54;100403.44;;;25.81;49.93
66381;BME280;53177;52.648;1.214;2022-09-03T15:59:45;100396.53;;;25.55;48.87
66381;BME280;53177;52.648;1.214;2022-09-03T16:05:18;100401.03;;;25.63;50.48
66381;BME280;53177;52.648;1.214;2022-09-03T16:08:03;100398.00;;;25.68;49.59
66381;BME280;53177;52.648;1.214;2022-09-03T16:11:02;100404.31;;;25.69;50.08
66381;BME280;53177;52.648;1.214;2022-09-03T16:13:49;100400.59;;;25.61;49.87
66381;BME280;53177;52.648;1.214;2022-09-03T16:16:56;100407.44;;;25.52;50.15
66381;BME280;53177;52.648;1.214;2022-09-03T16:19:27;100413.63;;;25.49;50.17
66381;BME280;53177;52.648;1.214;2022-09-03T16:21:59;100405.75;;;25.47;50.88
66381;BME280;53177;52.648;1.214;2022-09-03T16:29:30;100408.06;;;25.29;50.61
66381;BME280;53177;52.648;1.214;2022-09-03T16:40:17;100423.81;;;25.01;51.61
66381;BME280;53177;52.648;1.214;2022-09-03T16:51:07;100426.13;;;24.86;51.63
66381;BME280;53177;52.648;1.214;2022-09-03T16:59:33;100427.09;;;24.50;53.47
66381;BME280;53177;52.648;1.214;2022-09-03T17:10:57;100447.72;;;24.44;53.92
66381;BME280;53177;52.648;1.214;2022-09-03T17:24:19;100465.47;;;24.22;55.48
66381;BME280;53177;52.648;1.214;2022-09-03T17:30:06;100476.34;;;24.06;56.46
66381;BME280;53177;52.648;1.214;2022-09-03T17:36:11;100481.75;;;24.03;55.88
66381;BME280;53177;52.648;1.214;2022-09-03T17:49:46;100488.28;;;23.53;57.69